Time;durP1;ratioP1;P1;durP2;ratioP2;P2;SDS_P1;SDS_P2;PMS_P1;PMS_P2;Temp;Humidity;BMP_temperature;BMP_pressure;BME280_temperature;BME280_humidity;BME280_pressure;Samples;Min_cycle;Max_cycle;Signal;HPM_P1;HPM_P2
2021/10/20 00:01:04;;;;;;;4.57;2.22;;;;;;;26.91;21.69;98571.28;5069587;28;20055;-80
2021/10/20 00:03:30;;;;;;;3.97;2.20;;;;;;;26.87;22.21;98569.78;5067790;28;20043;-79
2021/10/20 00:05:57;;;;;;;2.75;1.85;;;;;;;26.88;21.82;98557.31;5044037;28;20440;-80
2021/10/20 00:08:23;;;;;;;4.10;1.80;;;;;;;26.20;22.77;98583.47;5068727;28;20033;-80
2021/10/20 00:10:49;;;;;;;3.50;2.58;;;;;;;25.79;23.40;98563.44;5066002;28;20025;-80
2021/10/20 00:13:16;;;;;;;3.05;1.65;;;;;;;26.14;22.86;98559.84;5063627;28;20068;-79
2021/10/20 00:15:42;;;;;;;3.58;1.27;;;;;;;26.32;22.80;98562.28;5067442;28;20450;-79
2021/10/20 00:18:08;;;;;;;1.85;1.45;;;;;;;26.25;23.09;98557.59;5051894;28;20041;-80
2021/10/20 00:20:34;;;;;;;2.55;1.45;;;;;;;26.28;23.33;98553.13;5067324;28;20049;-80
2021/10/20 00:23:01;;;;;;;1.33;1.17;;;;;;;26.38;23.13;98552.88;5066840;28;20491;-80
2021/10/20 00:25:27;;;;;;;1.50;1.20;;;;;;;26.89;22.48;98554.03;5066934;28;20112;-80
2021/10/20 00:27:53;;;;;;;1.73;0.80;;;;;;;27.14;22.53;98542.13;5064334;28;20032;-79
2021/10/20 00:30:19;;;;;;;3.33;1.02;;;;;;;27.44;22.18;98543.72;5068027;28;20072;-80
2021/10/20 00:32:45;;;;;;;1.88;0.93;;;;;;;27.47;22.17;98540.03;5067332;28;20028;-80
2021/10/20 00:35:11;;;;;;;1.45;1.10;;;;;;;27.81;21.83;98541.03;5075412;28;20036;-80
2021/10/20 00:37:37;;;;;;;1.08;0.90;;;;;;;28.08;21.16;98539.84;5070876;28;20114;-80
2021/10/20 00:40:05;;;;;;;1.77;1.05;;;;;;;28.43;20.69;98536.69;5072465;28;20028;-80
2021/10/20 00:42:31;;;;;;;2.80;0.98;;;;;;;28.28;21.01;98526.28;5067820;28;20385;-80
2021/10/20 00:44:59;;;;;;;1.50;0.90;;;;;;;28.05;21.51;98516.91;5068967;28;20040;-80
2021/10/20 00:47:29;;;;;;;1.85;0.85;;;;;;;28.05;21.54;98527.44;5069815;28;20044;-80
2021/10/20 00:49:56;;;;;;;1.48;0.93;;;;;;;28.57;20.82;98524.13;5072160;28;20039;-80
2021/10/20 00:52:24;;;;;;;1.02;0.65;;;;;;;28.59;21.16;98524.50;5067807;28;20103;-80
2021/10/20 00:54:53;;;;;;;0.98;0.52;;;;;;;28.79;21.03;98527.84;5071154;28;20025;-80
2021/10/20 00:57:21;;;;;;;1.55;0.63;;;;;;;29.16;20.35;98529.78;5069885;28;20036;-80
2021/10/20 00:59:48;;;;;;;1.00;0.90;;;;;;;29.60;19.89;98529.81;5055063;28;20033;-79
2021/10/20 01:02:14;;;;;;;1.13;0.70;;;;;;;29.61;19.96;98528.56;5072216;28;20111;-80
2021/10/20 01:04:40;;;;;;;0.98;0.60;;;;;;;29.63;19.95;98523.25;5069396;28;20120;-80
2021/10/20 01:07:07;;;;;;;0.95;0.65;;;;;;;29.85;20.00;98518.41;5087158;28;20492;-80
2021/10/20 01:09:34;;;;;;;0.50;0.50;;;;;;;30.07;19.59;98513.47;5073699;28;20032;-80
2021/10/20 01:12:01;;;;;;;0.65;0.60;;;;;;;30.26;19.41;98505.84;5072246;28;20037;-80
2021/10/20 01:14:29;;;;;;;0.90;0.60;;;;;;;30.30;19.85;98495.13;5062420;28;20049;-80
2021/10/20 01:16:55;;;;;;;2.17;0.90;;;;;;;29.61;20.50;98494.63;5071248;28;20151;-80
2021/10/20 01:19:21;;;;;;;1.55;0.60;;;;;;;29.21;21.03;98491.66;5069688;28;20124;-80
2021/10/20 01:21:48;;;;;;;1.10;0.40;;;;;;;28.55;21.76;98487.06;5070525;28;20033;-80
2021/10/20 01:24:14;;;;;;;0.90;0.60;;;;;;;28.71;21.39;98481.28;5071537;28;20058;-80
2021/10/20 01:26:40;;;;;;;3.65;0.50;;;;;;;29.08;20.77;98469.03;5069429;28;20047;-80
2021/10/20 01:29:06;;;;;;;2.35;0.60;;;;;;;29.19;20.90;98471.53;5065871;28;20505;-80
2021/10/20 01:31:32;;;;;;;0.75;0.50;;;;;;;29.38;20.56;98467.59;5060885;28;20037;-80
2021/10/20 01:33:58;;;;;;;1.10;0.75;;;;;;;29.48;20.37;98462.78;5063505;28;20031;-80
2021/10/20 01:36:24;;;;;;;0.63;0.50;;;;;;;29.36;20.22;98453.91;5065800;28;20036;-80
2021/10/20 01:38:52;;;;;;;0.57;0.45;;;;;;;29.35;20.36;98463.66;5069353;28;20051;-80
2021/10/20 01:41:18;;;;;;;0.70;0.32;;;;;;;29.28;20.53;98468.78;5070869;28;20043;-80
2021/10/20 01:43:49;;;;;;;0.90;0.70;;;;;;;28.84;21.05;98467.91;5068416;28;20545;-80
2021/10/20 01:46:19;;;;;;;0.77;0.52;;;;;;;28.77;21.21;98468.16;5062779;28;20035;-80
2021/10/20 01:48:46;;;;;;;1.85;1.10;;;;;;;28.97;20.91;98465.81;5053812;28;20036;-80
2021/10/20 01:51:13;;;;;;;1.63;0.57;;;;;;;28.94;20.90;98472.38;5065824;28;20035;-80
2021/10/20 01:53:39;;;;;;;0.50;0.40;;;;;;;28.89;21.01;98475.03;5064659;28;20020;-80
2021/10/20 01:56:06;;;;;;;1.00;0.60;;;;;;;29.01;20.80;98474.97;5070690;28;20035;-80
2021/10/20 01:58:32;;;;;;;0.50;0.50;;;;;;;29.28;20.46;98469.56;5064108;28;20028;-80
2021/10/20 02:00:59;;;;;;;0.73;0.50;;;;;;;29.57;20.11;98468.50;5069217;28;20486;-79
2021/10/20 02:03:26;;;;;;;0.47;0.40;;;;;;;29.69;20.05;98465.56;5070404;28;20028;-80
2021/10/20 02:05:55;;;;;;;2.00;0.50;;;;;;;29.54;20.22;98458.09;5069049;28;20086;-80
2021/10/20 02:08:24;;;;;;;0.75;0.50;;;;;;;29.61;20.10;98458.63;5050765;28;20025;-80
2021/10/20 02:10:50;;;;;;;0.40;0.35;;;;;;;29.74;19.96;98458.53;5061718;28;20032;-79
2021/10/20 02:13:17;;;;;;;0.50;0.50;;;;;;;29.92;19.87;98448.09;5067576;28;20029;-80
2021/10/20 02:15:43;;;;;;;0.47;0.47;;;;;;;29.96;19.78;98447.97;5073867;28;20028;-80
2021/10/20 02:18:09;;;;;;;0.70;0.50;;;;;;;29.99;19.95;98444.22;5053649;28;20041;-80
2021/10/20 02:20:35;;;;;;;0.43;0.43;;;;;;;29.94;19.79;98447.66;5061543;28;20071;-80
2021/10/20 02:23:01;;;;;;;0.45;0.40;;;;;;;29.84;19.82;98446.03;5061995;28;20401;-80
2021/10/20 02:25:27;;;;;;;0.82;0.50;;;;;;;29.46;20.38;98434.16;5068923;28;20166;-80
2021/10/20 02:27:53;;;;;;;1.40;0.52;;;;;;;29.42;20.45;98448.44;5067444;28;20488;-80
2021/10/20 02:30:19;;;;;;;0.32;0.32;;;;;;;29.27;20.76;98439.69;5067485;28;20485;-80
2021/10/20 02:32:45;;;;;;;0.30;0.30;;;;;;;29.13;20.91;98445.03;5068088;28;20040;-80
2021/10/20 02:35:12;;;;;;;0.60;0.40;;;;;;;29.18;20.79;98441.66;5065924;28;20120;-80
2021/10/20 02:37:38;;;;;;;1.25;0.50;;;;;;;29.36;20.36;98436.91;5067788;28;20040;-80
2021/10/20 02:40:06;;;;;;;1.30;0.50;;;;;;;29.74;20.20;98438.69;5068800;28;20031;-80
2021/10/20 02:42:33;;;;;;;0.90;0.70;;;;;;;30.03;19.75;98437.16;5066970;28;20031;-80
2021/10/20 02:44:59;;;;;;;0.77;0.50;;;;;;;30.16;19.71;98436.22;5060035;28;20083;-80
2021/10/20 02:47:26;;;;;;;0.70;0.50;;;;;;;30.21;19.66;98429.94;5067333;28;20033;-80
2021/10/20 02:49:52;;;;;;;0.50;0.50;;;;;;;30.05;19.63;98433.84;5069408;28;20082;-80
2021/10/20 02:52:18;;;;;;;2.17;0.60;;;;;;;29.93;19.76;98429.06;5055264;28;20060;-80
2021/10/20 02:54:44;;;;;;;0.60;0.55;;;;;;;29.69;19.91;98427.97;5060854;28;20511;-80
2021/10/20 02:57:11;;;;;;;0.90;0.40;;;;;;;29.50;20.25;98432.75;5064398;28;20473;-80
2021/10/20 02:59:37;;;;;;;0.60;0.50;;;;;;;29.60;20.38;98416.63;5069044;28;20379;-80
2021/10/20 03:02:03;;;;;;;0.77;0.60;;;;;;;29.83;19.93;98413.28;5068547;28;20040;-80
2021/10/20 03:04:29;;;;;;;0.50;0.40;;;;;;;29.87;19.82;98409.06;5066980;28;20058;-80
2021/10/20 03:06:55;;;;;;;0.63;0.60;;;;;;;29.53;20.33;98412.03;5068480;28;20155;-80
2021/10/20 03:09:21;;;;;;;0.52;0.40;;;;;;;29.46;20.44;98412.31;5067267;28;20131;-80
2021/10/20 03:11:47;;;;;;;0.73;0.65;;;;;;;29.20;20.72;98408.03;5068298;28;20033;-80
2021/10/20 03:14:14;;;;;;;0.68;0.43;;;;;;;29.19;20.69;98398.00;5068826;28;20029;-80
2021/10/20 03:16:41;;;;;;;1.40;0.30;;;;;;;29.48;20.26;98398.47;5066876;28;20057;-81
2021/10/20 03:19:07;;;;;;;0.55;0.50;;;;;;;29.83;19.90;98393.47;5068858;28;20524;-80
2021/10/20 03:21:33;;;;;;;0.60;0.47;;;;;;;29.43;20.39;98397.03;5066864;28;20159;-80
2021/10/20 03:24:00;;;;;;;0.90;0.50;;;;;;;29.05;20.92;98399.28;5063453;28;20036;-80
2021/10/20 03:26:26;;;;;;;1.08;0.50;;;;;;;29.08;21.20;98397.59;5068063;28;20489;-80
2021/10/20 03:28:52;;;;;;;0.57;0.57;;;;;;;29.31;20.76;98397.91;5066567;28;20025;-80
2021/10/20 03:31:18;;;;;;;0.57;0.40;;;;;;;29.55;20.41;98397.41;5066002;28;20033;-80
2021/10/20 03:33:44;;;;;;;0.40;0.40;;;;;;;29.58;20.52;98393.66;5065662;28;20029;-80
2021/10/20 03:36:11;;;;;;;0.75;0.60;;;;;;;29.41;20.68;98398.75;5066659;28;20106;-80
2021/10/20 03:38:37;;;;;;;0.75;0.50;;;;;;;29.14;21.09;98392.91;5062031;28;20500;-80
2021/10/20 03:41:03;;;;;;;0.60;0.40;;;;;;;28.89;21.53;98393.84;5066260;28;20028;-80
2021/10/20 03:43:30;;;;;;;0.60;0.47;;;;;;;28.91;21.53;98393.38;5069998;28;20370;-80
2021/10/20 03:45:56;;;;;;;1.00;0.50;;;;;;;28.73;21.45;98396.81;5065761;28;20039;-80
2021/10/20 03:48:22;;;;;;;0.45;0.30;;;;;;;28.85;21.60;98393.16;5060486;28;20029;-80
2021/10/20 03:50:48;;;;;;;0.40;0.40;;;;;;;28.88;21.64;98380.16;5081140;28;20115;-80
2021/10/20 03:53:14;;;;;;;0.38;0.38;;;;;;;29.02;21.41;98382.44;5054518;28;20029;-80
2021/10/20 03:55:40;;;;;;;0.68;0.50;;;;;;;29.11;21.30;98379.69;5072585;28;20066;-80
2021/10/20 03:58:07;;;;;;;0.57;0.40;;;;;;;29.32;20.99;98381.72;5055428;28;20488;-80
2021/10/20 04:00:33;;;;;;;0.30;0.30;;;;;;;29.25;21.23;98382.78;5064523;28;20413;-79
2021/10/20 04:02:59;;;;;;;0.47;0.40;;;;;;;29.39;21.32;98378.63;5066771;28;20039;-79
2021/10/20 04:05:25;;;;;;;0.63;0.43;;;;;;;29.77;20.65;98378.38;5066872;28;20485;-79
2021/10/20 04:07:51;;;;;;;0.88;0.57;;;;;;;30.09;20.36;98381.47;5068812;28;20508;-79
2021/10/20 04:10:20;;;;;;;0.98;0.60;;;;;;;30.22;20.24;98380.56;5064329;28;20078;-79
2021/10/20 04:12:47;;;;;;;1.10;0.68;;;;;;;30.39;19.99;98374.16;5073024;28;20082;-79
2021/10/20 04:15:15;;;;;;;0.40;0.40;;;;;;;30.57;19.75;98365.66;5076237;28;20040;-79
2021/10/20 04:17:41;;;;;;;0.40;0.40;;;;;;;30.53;20.42;98369.91;5076135;28;20051;-79
2021/10/20 04:20:09;;;;;;;1.63;0.50;;;;;;;30.13;20.55;98366.38;5066313;28;20551;-79
2021/10/20 04:22:36;;;;;;;0.60;0.60;;;;;;;30.14;20.22;98362.28;5068412;28;20029;-81
2021/10/20 04:25:03;;;;;;;2.78;0.43;;;;;;;30.27;19.86;98362.94;5069640;28;20028;-81
2021/10/20 04:27:29;;;;;;;0.40;0.40;;;;;;;30.42;19.88;98359.06;5066488;28;20043;-81
2021/10/20 04:29:57;;;;;;;0.82;0.60;;;;;;;30.28;19.93;98364.50;5069770;28;20482;-81
2021/10/20 04:32:23;;;;;;;0.70;0.52;;;;;;;30.21;20.03;98359.94;5077001;28;20036;-80
2021/10/20 04:34:50;;;;;;;0.85;0.50;;;;;;;30.08;20.31;98360.06;5068456;28;20385;-80
2021/10/20 04:37:23;;;;;;;0.77;0.60;;;;;;;30.04;20.23;98353.75;5070200;28;20535;-80
2021/10/20 04:39:49;;;;;;;0.95;0.65;;;;;;;29.88;20.65;98359.69;5068803;28;20052;-80
2021/10/20 04:42:15;;;;;;;1.02;0.60;;;;;;;30.06;20.35;98359.72;5068309;28;20028;-82
2021/10/20 04:44:41;;;;;;;0.40;0.40;;;;;;;30.00;20.64;98352.31;5065276;28;20105;-78
2021/10/20 04:47:08;;;;;;;1.25;0.63;;;;;;;30.00;20.52;98355.97;5067763;28;20033;-78
2021/10/20 04:49:34;;;;;;;2.30;0.70;;;;;;;29.67;21.16;98348.41;5068270;28;20040;-78
2021/10/20 04:52:00;;;;;;;1.73;0.50;;;;;;;29.89;20.60;98343.50;5071829;28;20037;-78
2021/10/20 04:54:26;;;;;;;0.73;0.43;;;;;;;30.10;20.22;98342.59;5065069;28;20033;-78
2021/10/20 04:56:52;;;;;;;0.82;0.60;;;;;;;30.12;20.58;98337.25;5064545;28;20044;-78
2021/10/20 04:59:18;;;;;;;1.65;0.68;;;;;;;30.17;20.53;98330.97;5066295;28;20037;-78
2021/10/20 05:01:44;;;;;;;1.20;0.57;;;;;;;30.08;20.80;98339.47;5071061;28;20037;-78
2021/10/20 05:04:10;;;;;;;0.90;0.60;;;;;;;30.03;20.68;98325.91;5071443;28;20038;-79
2021/10/20 05:06:36;;;;;;;1.98;0.70;;;;;;;29.94;20.76;98325.91;5070112;28;20040;-79
2021/10/20 05:09:03;;;;;;;0.80;0.60;;;;;;;29.67;21.08;98323.72;5068133;28;20067;-79
2021/10/20 05:11:29;;;;;;;1.20;0.52;;;;;;;29.49;21.38;98322.88;5070283;28;20115;-78
2021/10/20 05:13:55;;;;;;;0.70;0.55;;;;;;;29.57;21.53;98321.34;5070940;28;20401;-78
2021/10/20 05:16:21;;;;;;;0.98;0.73;;;;;;;29.77;21.38;98318.91;5064727;28;20039;-79
2021/10/20 05:18:47;;;;;;;1.45;0.80;;;;;;;29.97;20.97;98313.63;5061703;28;20087;-79
2021/10/20 05:21:13;;;;;;;0.50;0.50;;;;;;;29.91;21.38;98312.66;5068843;28;20037;-79
2021/10/20 05:23:39;;;;;;;1.15;0.63;;;;;;;29.98;21.41;98318.84;5052549;28;20036;-79
2021/10/20 05:26:05;;;;;;;0.70;0.50;;;;;;;29.96;21.49;98323.38;5066167;28;20032;-78
2021/10/20 05:28:32;;;;;;;0.68;0.50;;;;;;;30.23;21.47;98319.78;5066322;28;20537;-80
2021/10/20 05:30:58;;;;;;;1.13;0.50;;;;;;;30.38;21.40;98307.41;5036862;28;20478;-80
2021/10/20 05:33:24;;;;;;;0.88;0.60;;;;;;;30.57;21.01;98311.03;5055170;28;20029;-80
2021/10/20 05:35:50;;;;;;;0.70;0.52;;;;;;;30.84;20.91;98305.34;5037560;28;20041;-80
2021/10/20 05:38:16;;;;;;;0.98;0.75;;;;;;;30.81;20.96;98299.84;5067647;28;20033;-80
2021/10/20 05:40:42;;;;;;;1.65;0.60;;;;;;;30.68;21.69;98300.78;5075348;28;20052;-80
2021/10/20 05:43:08;;;;;;;1.67;0.80;;;;;;;30.55;22.09;98299.41;5074865;28;20060;-80
2021/10/20 05:45:34;;;;;;;1.90;0.90;;;;;;;29.77;23.29;98284.97;5073644;28;20028;-80
2021/10/20 05:48:01;;;;;;;1.00;0.50;;;;;;;29.91;22.63;98271.00;5074515;28;20029;-80
2021/10/20 05:50:27;;;;;;;1.30;0.70;;;;;;;29.88;22.69;98282.47;5069533;28;20036;-80
2021/10/20 05:52:53;;;;;;;1.15;0.70;;;;;;;29.97;22.53;98293.78;5074509;28;20039;-80
2021/10/20 05:55:19;;;;;;;0.70;0.63;;;;;;;30.02;22.53;98276.19;5074156;28;20033;-80
2021/10/20 05:57:45;;;;;;;0.95;0.75;;;;;;;30.24;22.38;98285.34;5062464;28;20470;-80
2021/10/20 06:00:12;;;;;;;0.98;0.88;;;;;;;30.31;22.36;98275.75;5072682;28;20070;-80
2021/10/20 06:02:39;;;;;;;1.88;0.60;;;;;;;30.80;21.95;98287.69;5073787;28;20441;-80
2021/10/20 06:05:06;;;;;;;1.00;0.90;;;;;;;29.91;22.53;98278.69;5066997;28;20086;-80
2021/10/20 06:07:32;;;;;;;0.93;0.70;;;;;;;30.74;22.09;98293.22;5065880;28;20033;-80
2021/10/20 06:09:58;;;;;;;1.67;0.68;;;;;;;30.86;21.94;98291.47;5071351;28;20123;-80
2021/10/20 06:12:24;;;;;;;0.60;0.60;;;;;;;31.41;21.28;98290.06;5071358;28;20515;-80
2021/10/20 06:14:50;;;;;;;0.55;0.50;;;;;;;31.95;20.58;98285.41;5073675;28;20037;-80
2021/10/20 06:17:18;;;;;;;0.60;0.43;;;;;;;32.34;20.19;98291.94;5074242;28;20039;-80
2021/10/20 06:19:45;;;;;;;2.70;1.20;;;;;;;32.48;20.03;98289.13;5074015;28;20037;-80
2021/10/20 06:22:12;;;;;;;2.13;1.42;;;;;;;32.62;19.98;98290.47;5073462;28;20096;-80
2021/10/20 06:24:38;;;;;;;4.18;1.20;;;;;;;32.67;20.12;98286.94;5073577;28;20040;-80
2021/10/20 06:27:04;;;;;;;2.40;1.15;;;;;;;32.32;20.33;98291.63;5074063;28;20033;-80
2021/10/20 06:29:30;;;;;;;4.55;1.27;;;;;;;32.33;19.78;98288.31;5072773;28;20481;-80
2021/10/20 06:31:56;;;;;;;2.75;1.10;;;;;;;32.79;20.01;98294.41;5073729;28;20090;-80
2021/10/20 06:34:22;;;;;;;1.75;0.88;;;;;;;33.15;20.36;98296.91;5055216;28;20405;-80
2021/10/20 06:36:48;;;;;;;1.52;0.77;;;;;;;33.29;20.17;98284.72;5073857;28;20485;-80
2021/10/20 06:39:20;;;;;;;2.22;0.70;;;;;;;33.05;20.49;98289.72;5072548;28;20036;-80
2021/10/20 06:41:47;;;;;;;1.63;0.70;;;;;;;32.93;20.63;98299.31;5073177;28;20028;-80
2021/10/20 06:44:13;;;;;;;4.65;1.15;;;;;;;33.10;19.86;98293.94;5068746;28;20457;-80
2021/10/20 06:46:39;;;;;;;2.70;1.23;;;;;;;33.30;20.26;98294.03;5073605;28;20032;-80
2021/10/20 06:49:05;;;;;;;2.58;1.55;;;;;;;33.53;19.62;98293.16;5073881;28;20085;-80
2021/10/20 06:51:31;;;;;;;2.25;1.30;;;;;;;33.23;20.12;98297.28;5072981;28;20107;-80
2021/10/20 06:53:58;;;;;;;1.50;1.10;;;;;;;33.39;19.93;98306.09;5073199;28;20032;-80
2021/10/20 06:56:24;;;;;;;1.35;0.98;;;;;;;33.31;20.12;98302.09;5073221;28;20116;-80
2021/10/20 06:58:50;;;;;;;2.15;0.88;;;;;;;33.37;19.76;98299.34;5072872;28;20041;-80
2021/10/20 07:01:16;;;;;;;2.33;1.17;;;;;;;33.54;19.69;98291.84;5073349;28;20039;-80
2021/10/20 07:03:46;;;;;;;0.93;0.77;;;;;;;33.51;19.65;98287.13;5073589;28;20431;-80
2021/10/20 07:06:12;;;;;;;1.13;0.70;;;;;;;33.24;20.22;98284.59;5064581;28;20083;-80
2021/10/20 07:08:38;;;;;;;1.73;1.00;;;;;;;33.36;19.95;98281.47;5067048;28;20032;-80
2021/10/20 07:11:04;;;;;;;1.65;0.90;;;;;;;33.41;20.31;98274.28;5072124;28;20048;-80
2021/10/20 07:13:30;;;;;;;5.13;1.20;;;;;;;33.46;19.95;98278.50;5071274;28;20028;-80
2021/10/20 07:15:58;;;;;;;0.75;0.60;;;;;;;33.01;20.53;98274.91;5073417;28;20035;-80
2021/10/20 07:18:27;;;;;;;1.05;0.70;;;;;;;33.01;20.68;98288.31;5069875;28;20067;-82
2021/10/20 07:20:53;;;;;;;3.50;0.95;;;;;;;32.42;21.09;98279.69;5072663;28;20482;-81
2021/10/20 07:23:19;;;;;;;1.95;0.80;;;;;;;32.01;21.97;98280.66;5073524;28;20426;-80
2021/10/20 07:25:45;;;;;;;1.00;0.82;;;;;;;32.54;21.24;98281.53;5073084;28;20060;-80
2021/10/20 07:28:11;;;;;;;1.52;0.85;;;;;;;32.63;21.37;98270.06;5086458;28;20431;-80
2021/10/20 07:30:38;;;;;;;1.20;0.68;;;;;;;32.91;20.80;98273.41;5076842;28;20047;-80
2021/10/20 07:33:05;;;;;;;1.33;0.85;;;;;;;32.63;21.52;98274.94;5073002;28;20074;-81
2021/10/20 07:35:31;;;;;;;0.75;0.63;;;;;;;33.03;21.15;98277.25;5073296;28;20048;-81
2021/10/20 07:37:57;;;;;;;1.52;0.93;;;;;;;32.97;21.05;98280.00;5061799;28;20548;-80
2021/10/20 07:40:23;;;;;;;0.57;0.57;;;;;;;33.10;21.54;98274.03;5068638;28;20074;-80
2021/10/20 07:42:50;;;;;;;0.70;0.50;;;;;;;33.48;21.40;98275.94;5058276;28;20078;-81
2021/10/20 07:45:19;;;;;;;1.38;0.77;;;;;;;33.66;20.96;98272.88;5077017;28;20044;-81
2021/10/20 07:47:47;;;;;;;0.98;0.60;;;;;;;33.90;20.84;98270.66;5044933;28;20490;-81
2021/10/20 07:50:15;;;;;;;1.58;0.80;;;;;;;33.99;20.29;98265.59;5056661;28;20037;-81
2021/10/20 07:52:43;;;;;;;0.80;0.80;;;;;;;33.54;20.41;98277.63;5056072;28;20033;-81
2021/10/20 07:55:09;;;;;;;1.35;0.70;;;;;;;33.25;21.27;98278.44;5064029;28;20108;-81
2021/10/20 07:57:36;;;;;;;0.50;0.40;;;;;;;33.02;21.66;98267.97;5066695;28;20020;-81
2021/10/20 08:00:04;;;;;;;2.15;1.15;;;;;;;33.20;21.34;98273.44;5091458;28;20032;-81
2021/10/20 08:02:30;;;;;;;1.02;0.85;;;;;;;33.48;21.29;98265.34;5076598;28;20393;-81
2021/10/20 08:04:56;;;;;;;1.30;0.80;;;;;;;33.53;21.01;98266.72;5075651;28;20473;-81
2021/10/20 08:07:22;;;;;;;0.82;0.70;;;;;;;33.68;20.76;98265.41;5074629;28;20012;-81
2021/10/20 08:09:49;;;;;;;0.90;0.70;;;;;;;33.67;20.99;98263.06;5076603;28;20451;-81
2021/10/20 08:12:17;;;;;;;1.58;0.73;;;;;;;33.48;21.87;98258.84;5063003;28;20037;-81
2021/10/20 08:14:43;;;;;;;0.98;0.80;;;;;;;33.75;21.31;98258.53;5074782;28;20029;-81
2021/10/20 08:17:09;;;;;;;1.10;0.70;;;;;;;33.93;21.28;98269.66;5083090;28;20040;-81
2021/10/20 08:19:36;;;;;;;0.93;0.60;;;;;;;33.66;21.17;98259.44;5094996;28;20139;-81
2021/10/20 08:22:02;;;;;;;1.60;0.70;;;;;;;33.53;21.55;98258.19;5074994;28;20032;-81
2021/10/20 08:24:28;;;;;;;0.50;0.50;;;;;;;33.02;22.33;98253.75;5076255;28;20074;-81
2021/10/20 08:26:54;;;;;;;1.15;0.70;;;;;;;32.93;22.01;98253.78;5081756;28;20489;-81
2021/10/20 08:29:20;;;;;;;0.68;0.68;;;;;;;33.55;22.00;98253.56;5096658;28;20100;-81
2021/10/20 08:31:46;;;;;;;0.88;0.75;;;;;;;33.40;21.56;98247.09;5067535;28;20106;-81
2021/10/20 08:34:12;;;;;;;2.08;1.25;;;;;;;33.88;21.62;98242.66;5073916;28;20060;-81
2021/10/20 08:36:38;;;;;;;1.02;0.80;;;;;;;33.68;21.28;98242.63;5088050;28;20111;-81
2021/10/20 08:39:05;;;;;;;1.27;1.08;;;;;;;33.24;21.88;98247.63;5076217;28;20036;-81
2021/10/20 08:41:31;;;;;;;1.15;0.90;;;;;;;33.13;21.91;98247.44;5075696;28;20032;-81
2021/10/20 08:43:59;;;;;;;0.65;0.50;;;;;;;33.58;21.34;98246.91;5058302;28;20509;-81
2021/10/20 08:46:26;;;;;;;1.02;0.60;;;;;;;33.99;21.21;98239.94;5062359;28;20024;-81
2021/10/20 08:48:56;;;;;;;0.90;0.70;;;;;;;33.70;21.65;98245.00;5076551;28;20183;-81
2021/10/20 08:51:23;;;;;;;1.15;0.75;;;;;;;33.68;21.41;98236.16;5076060;28;20032;-81
2021/10/20 08:53:51;;;;;;;1.77;0.60;;;;;;;33.93;21.18;98235.47;5074576;28;20032;-81
2021/10/20 08:56:17;;;;;;;0.80;0.77;;;;;;;34.41;20.92;98233.75;5070104;28;20028;-81
2021/10/20 08:58:44;;;;;;;0.68;0.68;;;;;;;34.34;20.89;98219.94;5075901;28;20037;-81
2021/10/20 09:01:11;;;;;;;0.68;0.57;;;;;;;34.02;21.33;98221.88;5071834;28;20035;-81
2021/10/20 09:03:37;;;;;;;0.80;0.50;;;;;;;34.23;21.02;98225.50;5054475;28;20112;-81
2021/10/20 09:06:04;;;;;;;0.50;0.50;;;;;;;34.34;21.00;98225.63;5091125;28;20133;-81
2021/10/20 09:08:46;;;;;;;1.55;0.57;;;;;;;34.67;20.78;98219.53;5075194;28;20031;-81
2021/10/20 09:11:33;;;;;;;0.93;0.70;;;;;;;34.45;21.11;98217.19;5074290;28;21856;-81
2021/10/20 09:14:05;;;;;;;0.50;0.50;;;;;;;34.92;20.74;98217.94;5055395;28;20040;-81
2021/10/20 09:16:33;;;;;;;1.73;0.63;;;;;;;34.68;20.61;98216.16;5067327;28;20123;-81
2021/10/20 09:19:10;;;;;;;0.70;0.70;;;;;;;34.36;21.31;98217.34;5075609;28;20056;-81
2021/10/20 09:21:55;;;;;;;0.40;0.40;;;;;;;34.76;20.95;98205.09;5075362;28;20028;-81
2021/10/20 09:24:33;;;;;;;1.00;0.73;;;;;;;34.93;20.83;98208.09;5074978;28;20024;-81
2021/10/20 09:27:01;;;;;;;2.47;0.90;;;;;;;34.29;21.53;98208.44;5075375;28;20036;-81
2021/10/20 09:29:29;;;;;;;0.60;0.60;;;;;;;34.33;21.14;98206.94;5075074;28;20082;-81
2021/10/20 09:31:56;;;;;;;0.80;0.57;;;;;;;34.63;21.05;98204.72;5074710;28;20036;-81
2021/10/20 09:34:22;;;;;;;1.05;0.60;;;;;;;34.43;20.79;98199.81;5075267;28;20426;-81
2021/10/20 09:36:54;;;;;;;0.77;0.50;;;;;;;34.88;20.91;98203.91;5074380;28;20056;-81
2021/10/20 09:39:20;;;;;;;0.60;0.60;;;;;;;35.04;20.25;98203.28;5075319;28;20024;-81
2021/10/20 09:41:46;;;;;;;1.08;0.63;;;;;;;35.28;20.21;98208.66;5059230;28;20119;-81
2021/10/20 09:44:14;;;;;;;0.93;0.70;;;;;;;35.15;20.18;98199.75;5074494;28;20043;-81
2021/10/20 09:46:47;;;;;;;1.52;0.60;;;;;;;35.24;19.73;98196.69;5063127;28;20038;-81
2021/10/20 09:49:24;;;;;;;1.08;0.70;;;;;;;35.68;20.60;98196.22;5073912;28;20028;-81
2021/10/20 09:51:57;;;;;;;5.68;0.88;;;;;;;36.25;19.44;98196.75;5054695;28;20036;-81
2021/10/20 09:54:36;;;;;;;0.60;0.60;;;;;;;36.36;19.39;98175.97;5054504;28;20299;-81
2021/10/20 09:57:03;;;;;;;1.08;0.55;;;;;;;36.58;19.31;98184.63;5059898;28;20479;-81
2021/10/20 09:59:31;;;;;;;0.50;0.45;;;;;;;36.37;18.86;98178.31;5058740;28;20035;-81
2021/10/20 10:01:57;;;;;;;0.75;0.52;;;;;;;35.83;19.50;98183.31;5054461;28;20025;-81
2021/10/20 10:04:25;;;;;;;1.73;0.80;;;;;;;35.95;19.72;98173.47;5054632;28;20036;-81
2021/10/20 10:06:51;;;;;;;0.40;0.40;;;;;;;36.16;19.55;98170.44;5062722;28;20049;-81
2021/10/20 10:09:17;;;;;;;0.50;0.40;;;;;;;36.50;19.78;98166.41;5074168;28;20035;-81
2021/10/20 10:11:50;;;;;;;1.50;0.43;;;;;;;36.90;19.69;98170.88;5067521;28;20067;-81
2021/10/20 10:14:19;;;;;;;0.50;0.50;;;;;;;37.14;19.34;98165.41;5069977;28;20058;-81
2021/10/20 10:16:46;;;;;;;0.85;0.40;;;;;;;36.57;18.99;98157.31;5071758;28;20119;-82
2021/10/20 10:19:13;;;;;;;0.50;0.50;;;;;;;36.60;19.56;98159.13;5073659;28;20557;-81
2021/10/20 10:21:42;;;;;;;0.30;0.30;;;;;;;36.52;19.28;98149.50;5073786;28;20028;-81
2021/10/20 10:24:14;;;;;;;0.60;0.40;;;;;;;36.38;19.89;98144.78;5074020;28;20116;-81
2021/10/20 10:27:08;;;;;;;0.50;0.50;;;;;;;36.38;19.98;98134.13;5060128;28;20029;-81
2021/10/20 10:29:53;;;;;;;0.75;0.43;;;;;;;36.76;18.84;98143.28;5053686;28;20397;-81
2021/10/20 10:32:21;;;;;;;0.43;0.40;;;;;;;36.63;19.44;98130.28;5073704;28;20039;-81
2021/10/20 10:34:50;;;;;;;1.13;0.60;;;;;;;36.80;19.47;98121.69;5073766;28;20024;-81
2021/10/20 10:37:27;;;;;;;2.67;0.50;;;;;;;37.05;19.23;98123.50;5072594;28;20040;-81
2021/10/20 10:39:55;;;;;;;0.65;0.60;;;;;;;37.09;18.90;98123.22;5058958;28;20029;-81
2021/10/20 10:42:35;;;;;;;0.55;0.40;;;;;;;37.08;18.95;98118.81;5053939;28;20032;-82
2021/10/20 10:45:16;;;;;;;0.40;0.40;;;;;;;37.24;18.38;98110.22;5054526;28;20029;-81
2021/10/20 10:47:54;;;;;;;1.15;0.60;;;;;;;37.05;18.96;98105.53;5071545;28;20044;-81
2021/10/20 10:50:21;;;;;;;0.80;0.63;;;;;;;36.98;19.30;98092.53;5072425;28;20044;-81
2021/10/20 10:52:52;;;;;;;0.50;0.40;;;;;;;36.71;19.26;98088.38;5073408;28;20082;-81
2021/10/20 10:55:21;;;;;;;0.50;0.30;;;;;;;36.85;18.80;98086.56;5072444;28;20056;-81
2021/10/20 10:57:59;;;;;;;0.50;0.40;;;;;;;36.93;19.10;98078.22;5073345;28;20048;-81
2021/10/20 11:00:33;;;;;;;1.05;0.70;;;;;;;37.16;18.35;98086.25;5054167;28;20430;-81
2021/10/20 11:03:06;;;;;;;0.50;0.40;;;;;;;37.37;18.33;98073.22;5063135;28;20074;-81
2021/10/20 11:05:33;;;;;;;0.75;0.68;;;;;;;37.38;18.52;98077.66;5064872;28;20379;-81
2021/10/20 11:08:11;;;;;;;2.78;0.40;;;;;;;37.53;18.98;98067.94;5055716;28;20393;-81
2021/10/20 11:10:40;;;;;;;0.45;0.43;;;;;;;37.72;18.44;98063.94;5073342;28;20071;-81
2021/10/20 11:13:07;;;;;;;0.63;0.43;;;;;;;37.70;18.49;98057.16;5065823;28;20029;-81
2021/10/20 11:15:35;;;;;;;0.38;0.38;;;;;;;37.65;18.52;98050.16;5059034;28;20035;-81
2021/10/20 11:18:01;;;;;;;0.50;0.50;;;;;;;37.32;18.07;98048.19;5053388;28;20037;-81
2021/10/20 11:20:31;;;;;;;1.08;0.52;;;;;;;37.00;18.88;98047.00;5059878;28;20075;-81
2021/10/20 11:23:03;;;;;;;0.80;0.80;;;;;;;36.66;18.84;98031.94;5059872;28;20033;-82
2021/10/20 11:25:30;;;;;;;0.57;0.52;;;;;;;36.60;19.13;98033.22;5053280;28;20521;-81
2021/10/20 11:27:58;;;;;;;1.05;0.60;;;;;;;36.60;18.92;98021.78;5053097;28;20334;-81
2021/10/20 11:30:27;;;;;;;1.08;0.50;;;;;;;36.51;19.45;98019.19;5062750;28;20036;-81
2021/10/20 11:32:54;;;;;;;0.60;0.60;;;;;;;36.59;18.81;98014.53;5072843;28;20067;-81
2021/10/20 11:35:23;;;;;;;0.93;0.50;;;;;;;37.32;18.39;98010.94;5071143;28;20025;-81